Terminal Aerodrome Forecast
Issued by NWS

Home | Current Version | Previous Version | Graphics & Text | Print | Product List | Glossary On
Versions: 1 2 3 4 5 6 7 8 9 10 11 12 13 14 15 16 17 18 19 20 21 22 23 24 25 26 27 28
000
FTUS43 KLOT 250520
TAFGYY
TAF
KGYY 250520Z 2506/2606 22005KT P6SM VCSH SCT035 BKN150
     FM250640 23004KT 2SM TSRA SCT015 OVC040CB
     FM250730 23004KT P6SM VCSH SCT040 BKN050 BKN100
     FM250830 23004KT 6SM -SHRA VCTS SCT020CB BKN040 BKN100
      TEMPO 2509/2512 3SM TSRA SCT010 BKN025CB
     FM251300 32007KT P6SM VCSH OVC025
     FM251900 01009KT P6SM BKN035
     FM252100 35010KT P6SM SCT150
     FM260100 29004KT P6SM FEW150 SCT250=

USA.gov is the U.S. government's official web portal to all federal, state and local government web resources and services.